createdAt,value
2022-09-17T00:01:21.931Z,7.90
2022-09-17T00:03:53.962Z,9.47
2022-09-17T00:06:22.104Z,8.70
2022-09-17T00:08:49.623Z,5.33
2022-09-17T00:11:18.249Z,4.73
2022-09-17T00:13:45.588Z,5.30
2022-09-17T00:16:13.135Z,5.13
2022-09-17T00:18:43.477Z,5.83
2022-09-17T00:21:17.842Z,10.77
2022-09-17T00:23:45.288Z,11.83
2022-09-17T00:26:12.873Z,7.13
2022-09-17T00:28:41.776Z,17.83
2022-09-17T00:31:09.936Z,7.23
2022-09-17T00:33:37.355Z,5.63
2022-09-17T00:36:05.386Z,5.87
2022-09-17T00:38:32.683Z,14.07
2022-09-17T00:40:59.988Z,10.10
2022-09-17T00:43:39.536Z,8.27
2022-09-17T00:46:11.599Z,9.50
2022-09-17T00:48:38.823Z,5.57
2022-09-17T00:51:06.635Z,10.17
2022-09-17T00:53:33.844Z,8.53
2022-09-17T00:56:07.665Z,7.63
2022-09-17T00:58:40.963Z,8.63
2022-09-17T01:01:08.627Z,9.13
2022-09-17T01:03:35.919Z,6.77
2022-09-17T01:06:21.831Z,10.17
2022-09-17T01:08:58.984Z,6.53
2022-09-17T01:11:26.334Z,7.20
2022-09-17T01:13:53.478Z,6.80
2022-09-17T01:16:20.690Z,12.97
2022-09-17T01:18:47.854Z,7.57
2022-09-17T01:21:38.829Z,8.60
2022-09-17T01:24:22.110Z,7.60
2022-09-17T01:27:08.284Z,10.23
2022-09-17T01:29:35.478Z,6.30
2022-09-17T01:32:09.238Z,10.60
2022-09-17T01:34:36.641Z,10.93
2022-09-17T01:37:14.922Z,8.33
2022-09-17T01:39:50.932Z,11.97
2022-09-17T01:42:26.033Z,8.77
2022-09-17T01:44:56.232Z,14.80
2022-09-17T01:47:25.071Z,7.13
2022-09-17T01:49:54.098Z,10.13
2022-09-17T01:52:21.739Z,10.17
2022-09-17T01:54:52.032Z,6.77
2022-09-17T01:57:34.326Z,6.70
2022-09-17T02:00:07.400Z,8.33
2022-09-17T02:02:53.033Z,11.70
2022-09-17T02:05:23.315Z,9.00
2022-09-17T02:07:57.003Z,10.20
2022-09-17T02:10:30.012Z,7.60
2022-09-17T02:12:58.920Z,14.00
2022-09-17T02:15:28.932Z,9.90
2022-09-17T02:17:58.265Z,9.40
2022-09-17T02:20:27.163Z,11.83
2022-09-17T02:22:57.291Z,10.00
2022-09-17T02:25:32.336Z,8.07
2022-09-17T02:27:59.765Z,3.93
2022-09-17T02:30:27.205Z,11.40
2022-09-17T02:32:55.052Z,7.63
2022-09-17T02:35:22.566Z,9.80
2022-09-17T02:37:49.683Z,12.33
2022-09-17T02:40:18.552Z,10.77
2022-09-17T02:43:01.216Z,8.07
2022-09-17T02:45:34.489Z,9.83
2022-09-17T02:48:07.828Z,11.23
2022-09-17T02:50:59.074Z,10.33
2022-09-17T02:53:45.306Z,10.00
2022-09-17T02:56:25.486Z,7.37
2022-09-17T02:59:02.745Z,12.90
2022-09-17T03:01:34.333Z,15.03
2022-09-17T03:04:03.407Z,11.17
2022-09-17T03:06:30.624Z,12.40
2022-09-17T03:08:57.857Z,13.10
2022-09-17T03:11:25.106Z,13.43
2022-09-17T03:13:52.642Z,13.83
2022-09-17T03:16:19.961Z,8.70
2022-09-17T03:18:47.178Z,12.57
2022-09-17T03:21:14.411Z,11.87
2022-09-17T03:23:41.623Z,11.03
2022-09-17T03:26:09.304Z,12.77
2022-09-17T03:28:36.503Z,8.60
2022-09-17T03:31:05.997Z,12.57
2022-09-17T03:33:33.799Z,9.77
2022-09-17T03:36:01.268Z,11.33
2022-09-17T03:38:28.675Z,7.53
2022-09-17T03:41:00.062Z,12.13
2022-09-17T03:43:27.602Z,11.40
2022-09-17T03:45:54.830Z,7.97
2022-09-17T03:48:22.328Z,8.90
2022-09-17T03:50:49.543Z,8.23
2022-09-17T03:53:16.867Z,10.90
2022-09-17T03:55:44.087Z,7.73
2022-09-17T03:58:11.365Z,10.90
2022-09-17T04:00:38.568Z,7.33
2022-09-17T04:03:06.079Z,12.40
2022-09-17T04:05:33.840Z,13.13
2022-09-17T04:08:01.891Z,6.20
2022-09-17T04:10:29.329Z,14.27
2022-09-17T04:12:56.482Z,10.80
2022-09-17T04:15:23.594Z,4.37
2022-09-17T04:17:50.846Z,9.07
2022-09-17T04:20:18.527Z,13.03
2022-09-17T04:22:45.946Z,5.70
2022-09-17T04:25:13.111Z,11.10
2022-09-17T04:27:40.329Z,10.47
2022-09-17T04:30:07.808Z,11.40
2022-09-17T04:32:35.045Z,13.13
2022-09-17T04:35:02.195Z,6.90
2022-09-17T04:37:29.345Z,6.43
2022-09-17T04:39:56.550Z,12.93
2022-09-17T04:42:23.870Z,23.30
2022-09-17T04:44:51.004Z,14.80
2022-09-17T04:47:18.133Z,11.43
2022-09-17T04:49:45.611Z,11.43
2022-09-17T04:52:12.957Z,16.43
2022-09-17T04:54:40.079Z,10.47
2022-09-17T04:57:07.256Z,7.30
2022-09-17T04:59:34.494Z,12.60
2022-09-17T05:02:01.756Z,12.80
2022-09-17T05:04:28.965Z,11.77
2022-09-17T05:06:56.157Z,7.60
2022-09-17T05:09:23.358Z,10.50
2022-09-17T05:11:50.716Z,7.03
2022-09-17T05:14:17.873Z,10.03
2022-09-17T05:16:45.076Z,10.63
2022-09-17T05:19:12.278Z,7.17
2022-09-17T05:21:39.504Z,11.57
2022-09-17T05:24:06.791Z,9.13
2022-09-17T05:26:33.931Z,9.57
2022-09-17T05:29:01.111Z,9.23
2022-09-17T05:31:28.757Z,6.87
2022-09-17T05:33:56.079Z,7.70
2022-09-17T05:36:23.224Z,12.53
2022-09-17T05:38:52.707Z,10.13
2022-09-17T05:41:19.852Z,7.77
2022-09-17T05:43:47.276Z,7.17
2022-09-17T05:46:14.582Z,11.60
2022-09-17T05:48:42.222Z,7.13
2022-09-17T05:51:09.384Z,8.07
2022-09-17T05:53:36.552Z,6.17
2022-09-17T05:56:03.681Z,8.20
2022-09-17T05:58:31.924Z,7.93
2022-09-17T06:01:01.318Z,11.07
2022-09-17T06:03:28.545Z,8.70
2022-09-17T06:05:56.708Z,7.07
2022-09-17T06:08:23.874Z,8.33
2022-09-17T06:10:51.558Z,8.87
2022-09-17T06:13:19.213Z,10.50
2022-09-17T06:15:55.393Z,6.90
2022-09-17T06:18:22.799Z,15.70
2022-09-17T06:20:56.772Z,8.13
2022-09-17T06:23:24.363Z,5.00
2022-09-17T06:25:56.148Z,10.03
2022-09-17T06:28:23.343Z,10.70
2022-09-17T06:30:54.382Z,7.40
2022-09-17T06:33:22.277Z,9.53
2022-09-17T06:35:49.540Z,12.67
2022-09-17T06:38:16.829Z,10.93
2022-09-17T06:40:44.011Z,14.43
2022-09-17T06:43:11.185Z,7.57
2022-09-17T06:45:39.351Z,7.93
2022-09-17T06:48:06.846Z,6.33
2022-09-17T06:50:34.040Z,7.63
2022-09-17T06:53:01.209Z,7.13
2022-09-17T06:55:28.428Z,5.63
2022-09-17T06:57:59.948Z,7.60
2022-09-17T07:00:27.208Z,5.53
2022-09-17T07:03:01.270Z,15.57
2022-09-17T07:05:29.540Z,8.80
2022-09-17T07:07:56.846Z,8.60
2022-09-17T07:10:24.074Z,11.33
2022-09-17T07:12:51.584Z,9.37
2022-09-17T07:15:19.767Z,6.67
2022-09-17T07:17:47.326Z,11.10
2022-09-17T07:20:14.761Z,7.67
2022-09-17T07:22:42.035Z,8.00
2022-09-17T07:25:09.518Z,9.07
2022-09-17T07:27:36.789Z,6.77
2022-09-17T07:30:05.369Z,6.17
2022-09-17T07:32:32.572Z,5.97
2022-09-17T07:34:59.809Z,6.70
2022-09-17T07:37:27.002Z,7.63
2022-09-17T07:39:54.269Z,5.93
2022-09-17T07:42:21.936Z,3.93
2022-09-17T07:44:49.086Z,4.40
2022-09-17T07:47:16.278Z,7.27
2022-09-17T07:49:43.429Z,5.13
2022-09-17T07:52:10.843Z,5.57
2022-09-17T07:54:38.128Z,5.30
2022-09-17T07:57:05.627Z,5.57
2022-09-17T07:59:32.853Z,6.47
2022-09-17T08:02:00.282Z,5.60
2022-09-17T08:04:27.611Z,6.37
2022-09-17T08:06:54.723Z,6.20
2022-09-17T08:09:22.688Z,6.77
2022-09-17T08:11:56.132Z,6.40
2022-09-17T08:14:29.176Z,8.67
2022-09-17T08:16:57.218Z,7.60
2022-09-17T08:19:24.531Z,9.70
2022-09-17T08:21:52.236Z,7.30
2022-09-17T08:24:19.596Z,6.10
2022-09-17T08:26:46.776Z,7.43
2022-09-17T08:29:14.218Z,4.63
2022-09-17T08:31:41.469Z,4.87
2022-09-17T08:34:09.658Z,3.03
2022-09-17T08:36:37.068Z,4.93
2022-09-17T08:39:04.676Z,5.63
2022-09-17T08:41:41.146Z,2.10
2022-09-17T08:44:08.332Z,8.63
2022-09-17T08:46:38.612Z,3.53
2022-09-17T08:49:15.389Z,5.20
2022-09-17T08:52:02.928Z,4.30
2022-09-17T08:54:30.421Z,2.23
2022-09-17T08:57:16.208Z,5.27
2022-09-17T09:00:02.221Z,5.83
2022-09-17T09:02:51.933Z,7.10
2022-09-17T09:05:22.770Z,8.63
2022-09-17T09:07:55.942Z,8.03
2022-09-17T09:10:27.799Z,5.83
2022-09-17T09:12:56.408Z,2.17
2022-09-17T09:15:33.078Z,5.03
2022-09-17T09:18:04.019Z,2.43
2022-09-17T09:20:35.777Z,5.17
2022-09-17T09:23:18.940Z,4.90
2022-09-17T09:25:53.166Z,2.83
2022-09-17T09:28:26.347Z,6.93
2022-09-17T09:31:00.274Z,4.17
2022-09-17T09:33:30.889Z,6.63
2022-09-17T09:35:58.081Z,3.53
2022-09-17T09:38:36.265Z,7.20
2022-09-17T09:41:08.417Z,2.33
2022-09-17T09:43:59.975Z,6.83
2022-09-17T09:46:29.941Z,4.45
2022-09-17T09:48:57.183Z,0.73
2022-09-17T09:51:30.669Z,3.97
2022-09-17T09:53:57.963Z,2.20
2022-09-17T09:56:41.707Z,3.63
2022-09-17T09:59:12.003Z,3.50
2022-09-17T10:01:41.052Z,4.53
2022-09-17T10:04:34.819Z,3.80
2022-09-17T10:07:03.573Z,4.77
2022-09-17T10:09:32.591Z,5.22
2022-09-17T10:12:05.739Z,3.10
2022-09-17T10:14:34.384Z,6.70
2022-09-17T10:17:12.017Z,4.27
2022-09-17T10:19:39.495Z,8.67
2022-09-17T10:22:18.809Z,6.00
2022-09-17T10:24:46.536Z,4.80
2022-09-17T10:27:18.793Z,5.77
2022-09-17T10:29:47.177Z,3.08
2022-09-17T10:32:18.257Z,3.75
2022-09-17T10:35:04.423Z,5.55
2022-09-17T10:37:36.126Z,6.40
2022-09-17T10:40:03.428Z,5.37
2022-09-17T10:42:30.909Z,3.70
2022-09-17T10:45:00.819Z,6.55
2022-09-17T10:47:30.402Z,4.60
2022-09-17T10:50:02.632Z,4.50
2022-09-17T10:52:42.038Z,3.53
2022-09-17T10:55:09.548Z,3.95
2022-09-17T10:58:07.552Z,3.40
2022-09-17T11:00:47.865Z,4.55
2022-09-17T11:03:22.954Z,7.65
2022-09-17T11:05:50.194Z,2.28
2022-09-17T11:08:40.040Z,3.92
2022-09-17T11:11:11.938Z,1.25
2022-09-17T11:13:39.106Z,2.40
2022-09-17T11:16:06.319Z,2.72
2022-09-17T11:18:45.538Z,1.15
2022-09-17T11:21:37.000Z,3.65
2022-09-17T11:24:03.770Z,4.97
2022-09-17T11:26:33.905Z,2.83
2022-09-17T11:29:26.284Z,3.05
2022-09-17T11:32:24.923Z,2.67
2022-09-17T11:34:57.919Z,2.63
2022-09-17T11:37:31.388Z,3.30
2022-09-17T11:40:04.565Z,1.37
2022-09-17T11:42:33.568Z,2.13
2022-09-17T11:45:06.599Z,3.20
2022-09-17T11:47:35.765Z,1.27
2022-09-17T11:50:12.019Z,2.53
2022-09-17T11:52:41.806Z,4.47
2022-09-17T11:55:12.200Z,3.03
2022-09-17T11:57:42.532Z,0.93
2022-09-17T12:00:20.166Z,1.97
2022-09-17T12:02:50.707Z,1.33
2022-09-17T12:05:22.400Z,2.90
2022-09-17T12:07:52.732Z,3.07
2022-09-17T12:10:32.361Z,1.63
2022-09-17T12:13:11.715Z,3.87
2022-09-17T12:15:40.154Z,2.33
2022-09-17T12:18:38.162Z,1.23
2022-09-17T12:21:09.540Z,2.20
2022-09-17T12:23:39.930Z,2.17
2022-09-17T12:26:13.816Z,1.83
2022-09-17T12:29:05.718Z,1.90
2022-09-17T12:31:37.737Z,1.47
2022-09-17T12:34:40.359Z,1.10
2022-09-17T12:37:08.267Z,0.95
2022-09-17T12:39:48.590Z,2.38
2022-09-17T12:42:37.295Z,1.48
2022-09-17T12:45:11.086Z,1.77
2022-09-17T12:47:41.076Z,0.47
2022-09-17T12:50:24.779Z,1.35
2022-09-17T12:53:05.130Z,2.28
2022-09-17T12:55:57.569Z,1.17
2022-09-17T12:58:48.918Z,2.05
2022-09-17T13:01:29.582Z,2.28
2022-09-17T13:04:06.947Z,1.20
2022-09-17T13:07:07.477Z,2.55
2022-09-17T13:10:01.908Z,2.95
2022-09-17T13:12:39.713Z,1.23
2022-09-17T13:15:34.275Z,2.88
2022-09-17T13:18:26.255Z,4.70
2022-09-17T13:21:13.453Z,3.67
2022-09-17T13:23:48.019Z,2.90
2022-09-17T13:26:19.413Z,3.03
2022-09-17T13:28:47.949Z,2.53
2022-09-17T13:31:39.463Z,4.43
2022-09-17T13:34:19.217Z,3.90
2022-09-17T13:36:53.133Z,3.47
2022-09-17T13:39:40.745Z,2.88
2022-09-17T13:42:12.336Z,7.53
2022-09-17T13:44:42.474Z,4.28
2022-09-17T13:47:29.960Z,6.78
2022-09-17T13:50:03.480Z,6.45
2022-09-17T13:52:42.099Z,2.47
2022-09-17T13:55:10.522Z,2.47
2022-09-17T13:57:47.784Z,3.65
2022-09-17T14:00:33.858Z,2.58
2022-09-17T14:03:21.822Z,6.78
2022-09-17T14:05:49.290Z,6.18
2022-09-17T14:08:28.746Z,4.15
2022-09-17T14:10:57.118Z,2.22
2022-09-17T14:13:36.529Z,5.05
2022-09-17T14:16:04.080Z,6.10
2022-09-17T14:18:35.517Z,6.18
2022-09-17T14:21:14.755Z,5.00
2022-09-17T14:23:46.757Z,4.20
2022-09-17T14:26:46.444Z,7.18
2022-09-17T14:29:16.634Z,3.17
2022-09-17T14:31:43.931Z,5.97
2022-09-17T14:34:15.449Z,3.70
2022-09-17T14:36:43.091Z,9.63
2022-09-17T14:39:13.954Z,6.28
2022-09-17T14:41:42.661Z,4.72
2022-09-17T14:44:11.391Z,3.33
2022-09-17T14:46:47.511Z,2.70
2022-09-17T14:49:38.439Z,5.53
2022-09-17T14:52:26.902Z,5.35
2022-09-17T14:55:18.441Z,5.63
2022-09-17T14:58:02.477Z,4.40
2022-09-17T15:00:35.293Z,3.65
2022-09-17T15:03:02.354Z,4.28
2022-09-17T15:05:38.320Z,2.45
2022-09-17T15:08:11.257Z,3.78
2022-09-17T15:10:45.381Z,3.10
2022-09-17T15:13:21.911Z,3.83
2022-09-17T15:16:07.959Z,3.15
2022-09-17T15:18:41.802Z,2.95
2022-09-17T15:21:36.291Z,3.50
2022-09-17T15:24:30.801Z,2.63
2022-09-17T15:27:00.169Z,4.13
2022-09-17T15:29:31.216Z,4.97
2022-09-17T15:31:58.206Z,4.90
2022-09-17T15:34:25.238Z,2.63
2022-09-17T15:37:06.508Z,4.38
2022-09-17T15:39:42.048Z,6.75
2022-09-17T15:42:30.398Z,3.50
2022-09-17T15:45:20.977Z,4.85
2022-09-17T15:48:10.939Z,6.50
2022-09-17T15:50:58.045Z,4.10
2022-09-17T15:53:33.035Z,1.60
2022-09-17T15:56:03.070Z,3.13
2022-09-17T15:58:33.418Z,2.42
2022-09-17T16:01:15.406Z,3.45
2022-09-17T16:03:43.780Z,2.60
2022-09-17T16:06:22.319Z,5.70
2022-09-17T16:08:54.555Z,5.13
2022-09-17T16:11:26.620Z,2.92
2022-09-17T16:13:55.615Z,4.10
2022-09-17T16:16:32.216Z,1.77
2022-09-17T16:18:59.235Z,3.67
2022-09-17T16:21:26.142Z,2.57
2022-09-17T16:23:58.069Z,2.17
2022-09-17T16:26:31.162Z,17.80
2022-09-17T16:29:05.622Z,3.10
2022-09-17T16:31:33.326Z,8.23
2022-09-17T16:34:00.747Z,1.90
2022-09-17T16:36:30.974Z,2.35
2022-09-17T16:38:58.553Z,2.57
2022-09-17T16:41:25.427Z,4.50
2022-09-17T16:43:52.262Z,3.53
2022-09-17T16:46:19.243Z,4.63
2022-09-17T16:48:50.552Z,1.47
2022-09-17T16:51:17.764Z,7.33
2022-09-17T16:53:44.984Z,5.50
2022-09-17T16:56:14.879Z,5.13
2022-09-17T16:58:41.842Z,7.90
2022-09-17T17:01:12.700Z,4.33
2022-09-17T17:03:40.238Z,7.80
2022-09-17T17:06:15.187Z,10.40
2022-09-17T17:08:41.980Z,7.80
2022-09-17T17:11:08.811Z,5.57
2022-09-17T17:13:35.593Z,5.37
2022-09-17T17:16:10.452Z,3.90
2022-09-17T17:18:37.910Z,3.50
2022-09-17T17:21:09.348Z,4.73
2022-09-17T17:23:36.871Z,14.50
2022-09-17T17:26:03.945Z,5.33
2022-09-17T17:28:36.044Z,5.40
2022-09-17T17:31:04.177Z,9.37
2022-09-17T17:33:31.193Z,8.17
2022-09-17T17:36:07.542Z,2.60
2022-09-17T17:38:34.990Z,4.23
2022-09-17T17:41:10.274Z,6.10
2022-09-17T17:43:37.073Z,4.50
2022-09-17T17:46:09.754Z,7.00
2022-09-17T17:48:37.588Z,10.23
2022-09-17T17:51:08.558Z,10.07
2022-09-17T17:53:35.791Z,7.27
2022-09-17T17:56:06.781Z,7.83
2022-09-17T17:58:34.269Z,9.77
2022-09-17T18:01:09.039Z,7.72
2022-09-17T18:03:35.873Z,7.93
2022-09-17T18:06:06.318Z,8.63
2022-09-17T18:08:35.433Z,9.07
2022-09-17T18:11:04.173Z,9.83
2022-09-17T18:13:31.884Z,7.50
2022-09-17T18:16:00.706Z,10.93
2022-09-17T18:18:33.653Z,8.30
2022-09-17T18:21:06.419Z,7.03
2022-09-17T18:23:38.321Z,5.50
2022-09-17T18:26:07.696Z,6.67
2022-09-17T18:28:35.818Z,7.20
2022-09-17T18:31:14.484Z,7.63
2022-09-17T18:33:41.328Z,10.83
2022-09-17T18:36:08.383Z,8.07
2022-09-17T18:38:35.599Z,9.13
2022-09-17T18:41:04.485Z,8.50
2022-09-17T18:43:33.092Z,6.37
2022-09-17T18:46:01.221Z,5.87
2022-09-17T18:48:28.184Z,5.23
2022-09-17T18:51:15.459Z,6.07
2022-09-17T18:53:42.864Z,11.60
2022-09-17T18:56:21.070Z,9.27
2022-09-17T18:58:55.091Z,8.43
2022-09-17T19:01:25.248Z,6.60
2022-09-17T19:03:53.298Z,7.87
2022-09-17T19:06:20.926Z,8.60
2022-09-17T19:08:47.872Z,13.10
2022-09-17T19:11:15.666Z,8.93
2022-09-17T19:13:47.488Z,7.80
2022-09-17T19:16:15.184Z,7.67
2022-09-17T19:18:42.238Z,8.03
2022-09-17T19:21:15.276Z,10.73
2022-09-17T19:23:43.500Z,4.27
2022-09-17T19:26:17.427Z,5.37
2022-09-17T19:28:45.138Z,9.77
2022-09-17T19:31:16.890Z,6.30
2022-09-17T19:33:44.782Z,5.00
2022-09-17T19:36:14.647Z,4.30
2022-09-17T19:38:42.102Z,2.70
2022-09-17T19:41:17.746Z,3.73
2022-09-17T19:43:45.263Z,5.77
2022-09-17T19:46:12.096Z,2.30
2022-09-17T19:48:44.859Z,5.10
2022-09-17T19:51:12.811Z,1.83
2022-09-17T19:53:39.698Z,3.87
2022-09-17T19:56:14.713Z,5.07
2022-09-17T19:58:42.045Z,3.63
2022-09-17T20:01:09.985Z,4.50
2022-09-17T20:03:39.470Z,7.33
2022-09-17T20:06:08.616Z,1.13
2022-09-17T20:08:39.401Z,4.00
2022-09-17T20:11:10.676Z,2.00
2022-09-17T20:13:38.136Z,3.53
2022-09-17T20:16:20.882Z,1.23
2022-09-17T20:18:48.547Z,1.63
2022-09-17T20:21:24.375Z,2.67
2022-09-17T20:23:52.140Z,2.73
2022-09-17T20:26:18.918Z,2.77
2022-09-17T20:28:46.230Z,3.40
2022-09-17T20:31:14.408Z,0.83
2022-09-17T20:33:42.247Z,1.80
2022-09-17T20:36:12.385Z,2.87
2022-09-17T20:41:27.877Z,3.43
2022-09-17T20:43:55.007Z,1.63
2022-09-17T20:46:28.647Z,2.90
2022-09-17T20:48:57.552Z,3.60
2022-09-17T20:51:29.445Z,1.90
2022-09-17T20:53:57.512Z,2.10
2022-09-17T20:56:27.890Z,3.33
2022-09-17T20:59:07.846Z,1.50
2022-09-17T21:01:37.407Z,5.18
2022-09-17T21:04:07.103Z,1.23
2022-09-17T21:06:41.346Z,3.70
2022-09-17T21:09:15.649Z,1.10
2022-09-17T21:11:44.954Z,1.77
2022-09-17T21:14:12.323Z,1.83
2022-09-17T21:16:39.382Z,5.87
2022-09-17T21:19:08.695Z,3.57
2022-09-17T21:21:35.763Z,2.07
2022-09-17T21:24:04.696Z,5.13
2022-09-17T21:26:33.261Z,3.83
2022-09-17T21:29:00.223Z,2.63
2022-09-17T21:31:32.287Z,4.30
2022-09-17T21:34:02.509Z,2.67
2022-09-17T21:36:31.976Z,3.93
2022-09-17T21:39:02.119Z,7.27
2022-09-17T21:41:29.770Z,3.20
2022-09-17T21:43:56.725Z,3.60
2022-09-17T21:46:25.979Z,3.17
2022-09-17T21:48:56.126Z,2.77
2022-09-17T21:51:36.530Z,5.13
2022-09-17T21:54:21.368Z,6.93
2022-09-17T21:56:48.173Z,6.70
2022-09-17T21:59:16.584Z,11.10
2022-09-17T22:01:46.966Z,4.13
2022-09-17T22:04:18.036Z,5.03
2022-09-17T22:06:46.791Z,14.57
2022-09-17T22:09:18.085Z,2.60
2022-09-17T22:11:45.448Z,5.63
2022-09-17T22:14:15.785Z,5.97
2022-09-17T22:16:44.970Z,7.13
2022-09-17T22:19:13.782Z,6.73
2022-09-17T22:21:46.711Z,5.87
2022-09-17T22:24:15.634Z,7.50
2022-09-17T22:26:45.415Z,5.97
2022-09-17T22:29:15.497Z,4.20
2022-09-17T22:31:42.782Z,7.33
2022-09-17T22:34:11.716Z,4.10
2022-09-17T22:36:38.562Z,6.87
2022-09-17T22:39:06.783Z,6.57
2022-09-17T22:41:36.343Z,9.97
2022-09-17T22:44:06.189Z,6.90
2022-09-17T22:46:35.850Z,5.90
2022-09-17T22:49:02.973Z,7.17
2022-09-17T22:51:31.156Z,4.93
2022-09-17T22:53:59.251Z,6.37
2022-09-17T22:56:27.693Z,6.00
2022-09-17T22:58:56.135Z,3.83
2022-09-17T23:01:25.767Z,4.20
2022-09-17T23:03:53.160Z,9.20
2022-09-17T23:06:22.756Z,8.07
2022-09-17T23:08:50.127Z,6.30
2022-09-17T23:11:20.840Z,4.07
2022-09-17T23:13:48.403Z,6.87
2022-09-17T23:16:15.988Z,2.83
2022-09-17T23:18:43.748Z,2.57
2022-09-17T23:21:16.446Z,6.43
2022-09-17T23:23:45.556Z,5.30
2022-09-17T23:26:16.798Z,7.30
2022-09-17T23:28:44.168Z,5.47
2022-09-17T23:31:17.296Z,5.93
2022-09-17T23:33:45.120Z,5.83
2022-09-17T23:36:16.931Z,6.83
2022-09-17T23:38:46.185Z,5.70
2022-09-17T23:41:20.315Z,4.93
2022-09-17T23:43:50.847Z,3.00
2022-09-17T23:46:19.163Z,4.80
2022-09-17T23:48:46.754Z,3.33
2022-09-17T23:51:14.036Z,6.63
2022-09-17T23:53:40.910Z,6.13
2022-09-17T23:56:13.636Z,3.70
2022-09-17T23:58:40.497Z,5.67
